sensor_id;sensor_type;location;lat;lon;timestamp;pressure;altitude;pressure_sealevel;temperature;humidity
44839;BME280;30576;42.098;24.876;2022-09-12T00:01:11;99277.66;;;18.96;79.57
44839;BME280;30576;42.098;24.876;2022-09-12T00:03:37;99261.31;;;18.53;79.73
44839;BME280;30576;42.098;24.876;2022-09-12T00:06:11;99228.97;;;18.25;81.62
44839;BME280;30576;42.098;24.876;2022-09-12T00:08:37;99244.03;;;18.60;80.81
44839;BME280;30576;42.098;24.876;2022-09-12T00:11:04;99261.16;;;18.72;79.75
44839;BME280;30576;42.098;24.876;2022-09-12T00:13:30;99229.78;;;18.59;79.08
44839;BME280;30576;42.098;24.876;2022-09-12T00:15:55;99244.28;;;18.55;79.06
44839;BME280;30576;42.098;24.876;2022-09-12T00:18:21;99214.44;;;18.47;79.52
44839;BME280;30576;42.098;24.876;2022-09-12T00:20:46;99214.63;;;18.76;78.29
44839;BME280;30576;42.098;24.876;2022-09-12T00:23:13;99222.75;;;18.90;77.19
44839;BME280;30576;42.098;24.876;2022-09-12T00:25:43;99288.44;;;19.26;76.33
44839;BME280;30576;42.098;24.876;2022-09-12T00:28:09;99285.00;;;19.08;76.99
44839;BME280;30576;42.098;24.876;2022-09-12T00:30:39;99275.59;;;19.17;76.70
44839;BME280;30576;42.098;24.876;2022-09-12T00:33:04;99280.88;;;19.49;75.61
44839;BME280;30576;42.098;24.876;2022-09-12T00:35:30;99258.59;;;19.34;75.74
44839;BME280;30576;42.098;24.876;2022-09-12T00:37:55;99297.84;;;19.64;74.75
44839;BME280;30576;42.098;24.876;2022-09-12T00:40:21;99281.59;;;19.37;75.38
44839;BME280;30576;42.098;24.876;2022-09-12T00:42:47;99302.34;;;19.63;74.72
44839;BME280;30576;42.098;24.876;2022-09-12T00:45:27;99228.28;;;19.03;75.71
44839;BME280;30576;42.098;24.876;2022-09-12T00:47:54;99269.63;;;19.12;76.03
44839;BME280;30576;42.098;24.876;2022-09-12T00:50:21;99284.16;;;19.08;76.73
44839;BME280;30576;42.098;24.876;2022-09-12T00:52:52;99251.72;;;18.98;76.44
44839;BME280;30576;42.098;24.876;2022-09-12T00:55:38;99297.84;;;19.02;78.30
44839;BME280;30576;42.098;24.876;2022-09-12T00:58:08;99322.84;;;19.17;79.06
44839;BME280;30576;42.098;24.876;2022-09-12T01:00:36;99226.84;;;18.48;80.30
44839;BME280;30576;42.098;24.876;2022-09-12T01:03:11;99254.31;;;18.34;80.73
44839;BME280;30576;42.098;24.876;2022-09-12T01:05:43;99249.94;;;18.49;80.23
44839;BME280;30576;42.098;24.876;2022-09-12T01:08:11;99250.94;;;18.80;79.46
44839;BME280;30576;42.098;24.876;2022-09-12T01:10:39;99234.97;;;18.78;78.91
44839;BME280;30576;42.098;24.876;2022-09-12T01:13:06;99302.94;;;19.06;79.26
44839;BME280;30576;42.098;24.876;2022-09-12T01:15:33;99326.22;;;19.36;79.73
44839;BME280;30576;42.098;24.876;2022-09-12T01:29:33;99311.38;;;19.46;80.29
44839;BME280;30576;42.098;24.876;2022-09-12T01:32:25;99312.66;;;19.39;80.09
44839;BME280;30576;42.098;24.876;2022-09-12T01:40:32;99269.22;;;19.04;79.36
44839;BME280;30576;42.098;24.876;2022-09-12T01:45:57;99223.69;;;19.05;78.25
44839;BME280;30576;42.098;24.876;2022-09-12T01:48:33;99223.03;;;19.32;77.18
44839;BME280;30576;42.098;24.876;2022-09-12T01:51:24;99239.16;;;19.30;76.89
44839;BME280;30576;42.098;24.876;2022-09-12T01:53:59;99225.31;;;19.24;76.19
44839;BME280;30576;42.098;24.876;2022-09-12T01:56:31;99216.97;;;19.14;76.91
44839;BME280;30576;42.098;24.876;2022-09-12T01:59:06;99221.69;;;19.25;76.49
44839;BME280;30576;42.098;24.876;2022-09-12T02:01:38;99194.59;;;19.15;76.87
44839;BME280;30576;42.098;24.876;2022-09-12T02:04:22;99234.84;;;19.44;76.48
44839;BME280;30576;42.098;24.876;2022-09-12T02:07:15;99236.22;;;19.35;76.54
44839;BME280;30576;42.098;24.876;2022-09-12T02:10:06;99246.88;;;18.89;76.79
44839;BME280;30576;42.098;24.876;2022-09-12T02:15:42;99293.88;;;18.93;77.91
44839;BME280;30576;42.098;24.876;2022-09-12T02:18:12;99216.56;;;18.24;78.33
44839;BME280;30576;42.098;24.876;2022-09-12T02:20:40;99257.81;;;18.35;79.19
44839;BME280;30576;42.098;24.876;2022-09-12T02:23:13;99224.09;;;18.00;78.74
44839;BME280;30576;42.098;24.876;2022-09-12T02:25:43;99242.97;;;18.13;79.78
44839;BME280;30576;42.098;24.876;2022-09-12T02:28:17;99234.72;;;18.18;79.19
44839;BME280;30576;42.098;24.876;2022-09-12T02:38:53;99274.38;;;18.08;79.78
44839;BME280;30576;42.098;24.876;2022-09-12T02:41:20;99261.63;;;18.31;78.15
44839;BME280;30576;42.098;24.876;2022-09-12T02:43:47;99289.53;;;18.41;77.33
44839;BME280;30576;42.098;24.876;2022-09-12T02:46:41;99273.31;;;18.28;77.84
44839;BME280;30576;42.098;24.876;2022-09-12T02:49:08;99293.91;;;18.26;78.85
44839;BME280;30576;42.098;24.876;2022-09-12T02:51:33;99286.97;;;18.06;78.85
44839;BME280;30576;42.098;24.876;2022-09-12T02:54:00;99274.88;;;17.99;78.24
44839;BME280;30576;42.098;24.876;2022-09-12T02:56:29;99277.44;;;18.00;77.52
44839;BME280;30576;42.098;24.876;2022-09-12T02:59:04;99269.28;;;18.03;76.29
44839;BME280;30576;42.098;24.876;2022-09-12T03:07:27;99261.72;;;18.12;75.53
44839;BME280;30576;42.098;24.876;2022-09-12T03:18:11;99261.91;;;18.42;73.46
44839;BME280;30576;42.098;24.876;2022-09-12T03:21:07;99290.28;;;18.76;72.16
44839;BME280;30576;42.098;24.876;2022-09-12T03:23:37;99209.16;;;18.14;72.49
44839;BME280;30576;42.098;24.876;2022-09-12T03:26:10;99288.09;;;18.85;71.46
44839;BME280;30576;42.098;24.876;2022-09-12T03:28:38;99249.16;;;18.47;71.46
44839;BME280;30576;42.098;24.876;2022-09-12T03:31:16;99258.84;;;18.82;70.58
44839;BME280;30576;42.098;24.876;2022-09-12T03:33:42;99265.22;;;18.79;70.27
44839;BME280;30576;42.098;24.876;2022-09-12T03:36:21;99261.16;;;18.56;71.08
44839;BME280;30576;42.098;24.876;2022-09-12T03:38:47;99287.38;;;18.32;71.69
44839;BME280;30576;42.098;24.876;2022-09-12T03:41:13;99282.00;;;18.49;71.72
44839;BME280;30576;42.098;24.876;2022-09-12T03:43:38;99283.50;;;18.37;72.22
44839;BME280;30576;42.098;24.876;2022-09-12T03:46:04;99300.63;;;18.51;71.94
44839;BME280;30576;42.098;24.876;2022-09-12T03:48:30;99282.63;;;18.03;72.85
44839;BME280;30576;42.098;24.876;2022-09-12T03:50:59;99277.28;;;17.86;73.62
44839;BME280;30576;42.098;24.876;2022-09-12T03:53:26;99302.97;;;17.88;73.87
44839;BME280;30576;42.098;24.876;2022-09-12T03:55:52;99290.22;;;17.76;74.12
44839;BME280;30576;42.098;24.876;2022-09-12T03:58:17;99278.44;;;17.80;74.05
44839;BME280;30576;42.098;24.876;2022-09-12T04:00:43;99296.88;;;17.85;73.86
44839;BME280;30576;42.098;24.876;2022-09-12T04:03:08;99256.31;;;17.61;74.36
44839;BME280;30576;42.098;24.876;2022-09-12T04:05:34;99276.03;;;17.76;74.15
44839;BME280;30576;42.098;24.876;2022-09-12T04:07:59;99259.88;;;17.61;73.85
44839;BME280;30576;42.098;24.876;2022-09-12T04:10:25;99276.41;;;17.68;73.64
44839;BME280;30576;42.098;24.876;2022-09-12T04:12:50;99275.63;;;17.66;73.04
44839;BME280;30576;42.098;24.876;2022-09-12T04:15:16;99307.94;;;17.77;73.16
44839;BME280;30576;42.098;24.876;2022-09-12T04:17:41;99308.50;;;17.66;73.03
44839;BME280;30576;42.098;24.876;2022-09-12T04:20:07;99292.50;;;17.66;72.79
44839;BME280;30576;42.098;24.876;2022-09-12T04:22:32;99268.25;;;17.53;72.60
44839;BME280;30576;42.098;24.876;2022-09-12T04:24:58;99324.41;;;17.85;72.22
44839;BME280;30576;42.098;24.876;2022-09-12T04:27:23;99287.25;;;17.65;72.32
44839;BME280;30576;42.098;24.876;2022-09-12T04:29:49;99270.53;;;17.61;71.69
44839;BME280;30576;42.098;24.876;2022-09-12T04:32:14;99315.66;;;18.01;70.81
44839;BME280;30576;42.098;24.876;2022-09-12T04:34:40;99319.47;;;17.97;70.18
44839;BME280;30576;42.098;24.876;2022-09-12T04:37:06;99283.56;;;17.85;70.71
44839;BME280;30576;42.098;24.876;2022-09-12T04:39:31;99322.88;;;18.16;69.78
44839;BME280;30576;42.098;24.876;2022-09-12T04:41:56;99305.22;;;17.96;69.51
44839;BME280;30576;42.098;24.876;2022-09-12T04:44:22;99315.56;;;17.85;70.12
44839;BME280;30576;42.098;24.876;2022-09-12T04:46:48;99262.16;;;17.69;69.41
44839;BME280;30576;42.098;24.876;2022-09-12T04:49:14;99337.81;;;18.20;69.50
44839;BME280;30576;42.098;24.876;2022-09-12T04:51:43;99310.09;;;18.05;69.19
44839;BME280;30576;42.098;24.876;2022-09-12T04:54:18;99332.84;;;18.30;68.82
44839;BME280;30576;42.098;24.876;2022-09-12T04:56:48;99316.53;;;18.19;68.76
44839;BME280;30576;42.098;24.876;2022-09-12T04:59:15;99345.66;;;18.23;67.95
44839;BME280;30576;42.098;24.876;2022-09-12T05:01:41;99300.47;;;18.03;67.76
44839;BME280;30576;42.098;24.876;2022-09-12T05:04:09;99316.03;;;18.28;68.75
44839;BME280;30576;42.098;24.876;2022-09-12T05:06:36;99351.91;;;18.40;67.61
44839;BME280;30576;42.098;24.876;2022-09-12T05:09:03;99334.84;;;18.42;68.33
44839;BME280;30576;42.098;24.876;2022-09-12T05:11:32;99339.63;;;18.53;67.55
44839;BME280;30576;42.098;24.876;2022-09-12T05:13:58;99326.75;;;18.44;66.67
44839;BME280;30576;42.098;24.876;2022-09-12T05:16:26;99309.97;;;18.42;65.75
44839;BME280;30576;42.098;24.876;2022-09-12T05:18:52;99342.75;;;18.95;65.24
44839;BME280;30576;42.098;24.876;2022-09-12T05:21:19;99324.94;;;18.95;64.77
44839;BME280;30576;42.098;24.876;2022-09-12T05:23:46;99300.81;;;18.79;64.54
44839;BME280;30576;42.098;24.876;2022-09-12T05:26:15;99339.94;;;19.14;63.13
44839;BME280;30576;42.098;24.876;2022-09-12T05:28:41;99315.38;;;18.74;63.44
44839;BME280;30576;42.098;24.876;2022-09-12T05:34:19;99295.44;;;18.97;62.65
44839;BME280;30576;42.098;24.876;2022-09-12T05:36:45;99282.16;;;19.11;60.93
44839;BME280;30576;42.098;24.876;2022-09-12T05:39:10;99317.50;;;19.32;61.49
44839;BME280;30576;42.098;24.876;2022-09-12T05:41:36;99275.88;;;19.12;61.35
44839;BME280;30576;42.098;24.876;2022-09-12T05:44:04;99308.25;;;19.38;61.15
44839;BME280;30576;42.098;24.876;2022-09-12T05:46:41;99337.88;;;19.81;60.15
44839;BME280;30576;42.098;24.876;2022-09-12T05:49:10;99290.47;;;19.53;60.55
44839;BME280;30576;42.098;24.876;2022-09-12T05:51:38;99384.72;;;20.04;61.78
44839;BME280;30576;42.098;24.876;2022-09-12T05:54:05;99289.09;;;19.76;59.27
44839;BME280;30576;42.098;24.876;2022-09-12T05:56:33;99296.44;;;19.89;58.73
44839;BME280;30576;42.098;24.876;2022-09-12T05:59:11;99292.38;;;20.12;58.00
44839;BME280;30576;42.098;24.876;2022-09-12T06:01:37;99340.75;;;20.09;57.55
44839;BME280;30576;42.098;24.876;2022-09-12T06:04:04;99271.41;;;19.90;58.70
44839;BME280;30576;42.098;24.876;2022-09-12T06:06:33;99303.09;;;20.12;57.05
44839;BME280;30576;42.098;24.876;2022-09-12T06:09:02;99286.63;;;20.03;58.59
44839;BME280;30576;42.098;24.876;2022-09-12T06:11:30;99356.41;;;20.60;57.53
44839;BME280;30576;42.098;24.876;2022-09-12T06:13:57;99312.00;;;20.55;56.67
44839;BME280;30576;42.098;24.876;2022-09-12T06:16:25;99328.22;;;20.83;57.28
44839;BME280;30576;42.098;24.876;2022-09-12T06:18:53;99314.28;;;21.05;56.01
44839;BME280;30576;42.098;24.876;2022-09-12T06:21:20;99292.53;;;20.82;55.93
44839;BME280;30576;42.098;24.876;2022-09-12T06:23:46;99293.94;;;20.73;56.22
44839;BME280;30576;42.098;24.876;2022-09-12T06:26:13;99317.53;;;21.10;56.27
44839;BME280;30576;42.098;24.876;2022-09-12T06:28:40;99274.91;;;20.78;54.46
44839;BME280;30576;42.098;24.876;2022-09-12T06:31:11;99310.50;;;20.95;55.42
44839;BME280;30576;42.098;24.876;2022-09-12T06:33:39;99322.78;;;21.26;54.18
44839;BME280;30576;42.098;24.876;2022-09-12T06:36:11;99278.47;;;21.06;55.57
44839;BME280;30576;42.098;24.876;2022-09-12T06:38:37;99309.16;;;21.56;54.54
44839;BME280;30576;42.098;24.876;2022-09-12T06:41:04;99334.41;;;21.94;52.77
44839;BME280;30576;42.098;24.876;2022-09-12T06:43:31;99301.81;;;21.60;53.60
44839;BME280;30576;42.098;24.876;2022-09-12T06:45:57;99243.50;;;21.35;52.33
44839;BME280;30576;42.098;24.876;2022-09-12T06:48:26;99327.72;;;21.87;52.18
44839;BME280;30576;42.098;24.876;2022-09-12T06:51:02;99325.16;;;21.85;52.50
44839;BME280;30576;42.098;24.876;2022-09-12T06:53:29;99276.44;;;21.51;52.08
44839;BME280;30576;42.098;24.876;2022-09-12T06:56:02;99306.88;;;21.77;52.57
44839;BME280;30576;42.098;24.876;2022-09-12T06:58:33;99270.69;;;21.43;51.77
44839;BME280;30576;42.098;24.876;2022-09-12T07:01:06;99332.97;;;21.75;51.66
44839;BME280;30576;42.098;24.876;2022-09-12T07:03:33;99341.97;;;22.02;51.33
44839;BME280;30576;42.098;24.876;2022-09-12T07:06:07;99263.59;;;21.69;50.93
44839;BME280;30576;42.098;24.876;2022-09-12T07:08:34;99242.03;;;21.84;50.79
44839;BME280;30576;42.098;24.876;2022-09-12T07:11:17;99313.41;;;22.26;51.72
44839;BME280;30576;42.098;24.876;2022-09-12T07:13:47;99312.69;;;22.37;51.75
44839;BME280;30576;42.098;24.876;2022-09-12T07:16:13;99326.97;;;22.50;50.05
44839;BME280;30576;42.098;24.876;2022-09-12T07:18:41;99313.00;;;22.58;50.50
44839;BME280;30576;42.098;24.876;2022-09-12T07:21:13;99320.38;;;22.93;50.30
44839;BME280;30576;42.098;24.876;2022-09-12T07:23:39;99256.06;;;22.40;49.31
44839;BME280;30576;42.098;24.876;2022-09-12T07:26:07;99293.25;;;22.46;49.69
44839;BME280;30576;42.098;24.876;2022-09-12T07:28:34;99289.88;;;22.43;49.74
44839;BME280;30576;42.098;24.876;2022-09-12T07:31:10;99259.78;;;22.25;49.23
44839;BME280;30576;42.098;24.876;2022-09-12T07:33:47;99238.41;;;22.36;50.25
44839;BME280;30576;42.098;24.876;2022-09-12T07:36:18;99264.19;;;22.51;49.36
44839;BME280;30576;42.098;24.876;2022-09-12T07:38:44;99278.00;;;22.84;48.72
44839;BME280;30576;42.098;24.876;2022-09-12T07:41:17;99270.84;;;22.71;49.19
44839;BME280;30576;42.098;24.876;2022-09-12T07:43:44;99279.69;;;22.98;49.11
44839;BME280;30576;42.098;24.876;2022-09-12T07:46:10;99272.75;;;22.82;48.66
44839;BME280;30576;42.098;24.876;2022-09-12T07:48:38;99274.19;;;22.99;48.29
44839;BME280;30576;42.098;24.876;2022-09-12T07:51:07;99308.38;;;23.23;48.10
44839;BME280;30576;42.098;24.876;2022-09-12T07:53:36;99311.81;;;23.25;46.96
44839;BME280;30576;42.098;24.876;2022-09-12T07:56:03;99267.53;;;22.92;47.53
44839;BME280;30576;42.098;24.876;2022-09-12T07:58:31;99291.44;;;23.34;48.35
44839;BME280;30576;42.098;24.876;2022-09-12T08:01:12;99276.06;;;23.23;46.15
44839;BME280;30576;42.098;24.876;2022-09-12T08:03:45;99272.34;;;23.37;44.77
44839;BME280;30576;42.098;24.876;2022-09-12T08:08:38;99250.84;;;23.00;46.06
44839;BME280;30576;42.098;24.876;2022-09-12T08:11:06;99316.41;;;23.36;46.87
44839;BME280;30576;42.098;24.876;2022-09-12T08:13:34;99267.19;;;23.82;46.85
44839;BME280;30576;42.098;24.876;2022-09-12T08:16:04;99309.28;;;24.19;45.91
44839;BME280;30576;42.098;24.876;2022-09-12T08:18:30;99287.69;;;24.07;43.96
44839;BME280;30576;42.098;24.876;2022-09-12T08:21:04;99300.69;;;24.02;44.38
44839;BME280;30576;42.098;24.876;2022-09-12T08:23:30;99297.75;;;23.81;44.90
44839;BME280;30576;42.098;24.876;2022-09-12T08:26:02;99259.03;;;23.95;44.42
44839;BME280;30576;42.098;24.876;2022-09-12T08:28:30;99314.72;;;24.41;43.41
44839;BME280;30576;42.098;24.876;2022-09-12T08:31:04;99268.59;;;23.75;42.94
44839;BME280;30576;42.098;24.876;2022-09-12T08:33:30;99251.41;;;23.53;43.59
44839;BME280;30576;42.098;24.876;2022-09-12T08:36:11;99304.81;;;23.22;44.64
44839;BME280;30576;42.098;24.876;2022-09-12T08:38:39;99257.50;;;23.07;43.54
44839;BME280;30576;42.098;24.876;2022-09-12T08:41:10;99332.78;;;23.57;45.00
44839;BME280;30576;42.098;24.876;2022-09-12T08:49:11;99273.34;;;22.99;45.13
44839;BME280;30576;42.098;24.876;2022-09-12T08:51:42;99265.25;;;23.60;45.30
44839;BME280;30576;42.098;24.876;2022-09-12T08:54:21;99246.75;;;23.91;43.54
44839;BME280;30576;42.098;24.876;2022-09-12T08:56:48;99273.47;;;23.94;43.52
44839;BME280;30576;42.098;24.876;2022-09-12T08:59:14;99280.09;;;23.77;42.00
44839;BME280;30576;42.098;24.876;2022-09-12T09:01:42;99289.22;;;23.63;42.66
44839;BME280;30576;42.098;24.876;2022-09-12T09:07:05;99245.25;;;23.16;44.42
44839;BME280;30576;42.098;24.876;2022-09-12T09:18:00;99253.34;;;23.51;42.81
44839;BME280;30576;42.098;24.876;2022-09-12T09:20:44;99222.16;;;23.60;42.75
44839;BME280;30576;42.098;24.876;2022-09-12T09:23:39;99309.50;;;24.04;43.72
44839;BME280;30576;42.098;24.876;2022-09-12T09:29:10;99226.34;;;23.64;41.72
44839;BME280;30576;42.098;24.876;2022-09-12T09:31:39;99249.56;;;23.54;40.69
44839;BME280;30576;42.098;24.876;2022-09-12T09:34:18;99285.03;;;23.83;41.86
44839;BME280;30576;42.098;24.876;2022-09-12T09:36:54;99230.16;;;24.08;41.88
44839;BME280;30576;42.098;24.876;2022-09-12T09:44:54;99219.88;;;24.13;40.95
44839;BME280;30576;42.098;24.876;2022-09-12T09:47:26;99198.75;;;23.49;41.50
44839;BME280;30576;42.098;24.876;2022-09-12T09:49:55;99225.19;;;23.44;42.02
44839;BME280;30576;42.098;24.876;2022-09-12T09:52:28;99264.84;;;23.77;39.67
44839;BME280;30576;42.098;24.876;2022-09-12T09:54:59;99265.56;;;24.26;41.01
44839;BME280;30576;42.098;24.876;2022-09-12T09:57:40;99248.91;;;24.21;41.26
44839;BME280;30576;42.098;24.876;2022-09-12T10:00:42;99279.44;;;24.33;39.90
44839;BME280;30576;42.098;24.876;2022-09-12T10:09:32;99203.63;;;23.80;42.19
44839;BME280;30576;42.098;24.876;2022-09-12T10:12:00;99217.91;;;24.16;43.71
44839;BME280;30576;42.098;24.876;2022-09-12T10:14:34;99210.31;;;24.09;40.47
44839;BME280;30576;42.098;24.876;2022-09-12T10:20:38;99216.19;;;24.82;40.18
44839;BME280;30576;42.098;24.876;2022-09-12T10:25:54;99169.28;;;24.17;39.62
44839;BME280;30576;42.098;24.876;2022-09-12T10:28:42;99165.75;;;24.05;40.28
44839;BME280;30576;42.098;24.876;2022-09-12T10:31:14;99240.69;;;24.11;40.22
44839;BME280;30576;42.098;24.876;2022-09-12T10:33:43;99251.72;;;24.20;39.76
44839;BME280;30576;42.098;24.876;2022-09-12T10:36:17;99196.25;;;24.40;38.17
44839;BME280;30576;42.098;24.876;2022-09-12T10:38:54;99235.06;;;24.94;40.30
44839;BME280;30576;42.098;24.876;2022-09-12T10:41:22;99209.03;;;25.04;39.21
44839;BME280;30576;42.098;24.876;2022-09-12T10:43:50;99214.69;;;25.01;40.55
44839;BME280;30576;42.098;24.876;2022-09-12T10:48:46;99269.38;;;25.79;38.88
44839;BME280;30576;42.098;24.876;2022-09-12T10:53:54;99182.94;;;24.93;39.69
44839;BME280;30576;42.098;24.876;2022-09-12T10:56:23;99193.00;;;25.24;39.76
44839;BME280;30576;42.098;24.876;2022-09-12T11:01:38;99250.44;;;25.79;39.07
44839;BME280;30576;42.098;24.876;2022-09-12T11:09:57;99152.31;;;25.15;38.95
44839;BME280;30576;42.098;24.876;2022-09-12T11:12:39;99241.56;;;25.88;39.68
44839;BME280;30576;42.098;24.876;2022-09-12T11:15:29;99236.75;;;26.34;37.02
44839;BME280;30576;42.098;24.876;2022-09-12T11:33:49;99188.28;;;25.90;36.22
44839;BME280;30576;42.098;24.876;2022-09-12T11:36:31;99215.00;;;26.45;36.10
44839;BME280;30576;42.098;24.876;2022-09-12T11:42:35;99175.16;;;25.11;36.32
44839;BME280;30576;42.098;24.876;2022-09-12T11:47:39;99197.91;;;24.86;37.23
44839;BME280;30576;42.098;24.876;2022-09-12T11:50:22;99153.22;;;25.05;37.67
44839;BME280;30576;42.098;24.876;2022-09-12T11:53:43;99191.28;;;25.76;36.41
44839;BME280;30576;42.098;24.876;2022-09-12T11:56:15;99222.63;;;26.00;37.21
44839;BME280;30576;42.098;24.876;2022-09-12T11:58:53;99172.97;;;26.01;37.00
44839;BME280;30576;42.098;24.876;2022-09-12T12:01:25;99163.09;;;26.11;35.90
44839;BME280;30576;42.098;24.876;2022-09-12T12:03:55;99169.44;;;26.00;34.91
44839;BME280;30576;42.098;24.876;2022-09-12T12:06:29;99168.94;;;25.64;34.93
44839;BME280;30576;42.098;24.876;2022-09-12T12:08:59;99141.25;;;25.30;36.37
44839;BME280;30576;42.098;24.876;2022-09-12T12:11:30;99144.81;;;25.30;35.70
44839;BME280;30576;42.098;24.876;2022-09-12T12:14:04;99169.38;;;25.48;35.27
44839;BME280;30576;42.098;24.876;2022-09-12T12:16:36;99131.69;;;25.47;36.72
44839;BME280;30576;42.098;24.876;2022-09-12T12:19:25;99163.06;;;26.01;35.35
44839;BME280;30576;42.098;24.876;2022-09-12T12:22:14;99136.03;;;25.80;35.61
44839;BME280;30576;42.098;24.876;2022-09-12T12:38:01;99142.97;;;25.52;36.14
44839;BME280;30576;42.098;24.876;2022-09-12T12:40:33;99130.59;;;25.49;36.08
44839;BME280;30576;42.098;24.876;2022-09-12T12:43:28;99157.63;;;25.59;35.80
44839;BME280;30576;42.098;24.876;2022-09-12T12:46:24;99110.84;;;24.95;36.40
44839;BME280;30576;42.098;24.876;2022-09-12T12:51:57;99193.13;;;25.22;36.78
44839;BME280;30576;42.098;24.876;2022-09-12T12:54:54;99136.53;;;24.78;37.74
44839;BME280;30576;42.098;24.876;2022-09-12T12:57:30;99165.81;;;25.48;35.67
44839;BME280;30576;42.098;24.876;2022-09-12T13:00:23;99131.38;;;25.40;37.13
44839;BME280;30576;42.098;24.876;2022-09-12T13:03:21;99161.22;;;25.60;35.12
44839;BME280;30576;42.098;24.876;2022-09-12T13:06:06;99186.63;;;25.78;35.56
44839;BME280;30576;42.098;24.876;2022-09-12T13:08:35;99192.63;;;26.03;34.19
44839;BME280;30576;42.098;24.876;2022-09-12T13:11:11;99112.09;;;25.66;34.38
44839;BME280;30576;42.098;24.876;2022-09-12T13:13:51;99170.53;;;26.19;34.20
44839;BME280;30576;42.098;24.876;2022-09-12T13:16:34;99196.94;;;26.46;34.27
44839;BME280;30576;42.098;24.876;2022-09-12T13:19:29;99184.72;;;26.61;35.73
44839;BME280;30576;42.098;24.876;2022-09-12T13:22:32;99170.25;;;26.22;34.50
44839;BME280;30576;42.098;24.876;2022-09-12T13:25:33;99138.34;;;25.64;35.41
44839;BME280;30576;42.098;24.876;2022-09-12T13:33:45;99116.16;;;25.07;36.13
44839;BME280;30576;42.098;24.876;2022-09-12T13:47:45;99132.63;;;25.03;36.80
44839;BME280;30576;42.098;24.876;2022-09-12T13:53:16;99129.81;;;25.26;37.31
44839;BME280;30576;42.098;24.876;2022-09-12T13:55:59;99116.34;;;25.26;36.53
44839;BME280;30576;42.098;24.876;2022-09-12T13:58:30;99152.63;;;25.54;35.83
44839;BME280;30576;42.098;24.876;2022-09-12T14:01:36;99127.66;;;25.62;35.64
44839;BME280;30576;42.098;24.876;2022-09-12T14:04:25;99194.59;;;26.01;36.66
44839;BME280;30576;42.098;24.876;2022-09-12T14:07:22;99100.75;;;25.72;35.58
44839;BME280;30576;42.098;24.876;2022-09-12T14:10:00;99114.97;;;25.74;36.29
44839;BME280;30576;42.098;24.876;2022-09-12T14:12:47;99144.47;;;26.18;35.81
44839;BME280;30576;42.098;24.876;2022-09-12T14:15:21;99125.50;;;25.56;34.66
44839;BME280;30576;42.098;24.876;2022-09-12T14:17:56;99113.84;;;25.55;34.41
44839;BME280;30576;42.098;24.876;2022-09-12T14:20:26;99131.44;;;25.71;34.51
44839;BME280;30576;42.098;24.876;2022-09-12T14:23:00;99154.53;;;26.06;35.57
44839;BME280;30576;42.098;24.876;2022-09-12T14:25:35;99171.81;;;25.94;34.80
44839;BME280;30576;42.098;24.876;2022-09-12T14:28:02;99137.44;;;25.53;34.04
44839;BME280;30576;42.098;24.876;2022-09-12T14:30:34;99202.31;;;25.63;35.43
44839;BME280;30576;42.098;24.876;2022-09-12T14:33:21;99153.16;;;25.48;34.93
44839;BME280;30576;42.098;24.876;2022-09-12T14:35:49;99147.44;;;25.63;34.94
44839;BME280;30576;42.098;24.876;2022-09-12T14:40:51;99168.31;;;25.40;36.05
44839;BME280;30576;42.098;24.876;2022-09-12T14:43:28;99144.03;;;25.28;34.66
44839;BME280;30576;42.098;24.876;2022-09-12T14:46:00;99213.03;;;25.74;35.02
44839;BME280;30576;42.098;24.876;2022-09-12T14:48:35;99162.31;;;25.57;33.97
44839;BME280;30576;42.098;24.876;2022-09-12T14:51:01;99198.88;;;25.82;34.46
44839;BME280;30576;42.098;24.876;2022-09-12T14:53:51;99116.97;;;25.18;34.73
44839;BME280;30576;42.098;24.876;2022-09-12T14:56:39;99156.66;;;25.39;34.66
44839;BME280;30576;42.098;24.876;2022-09-12T14:59:49;99189.59;;;25.54;35.37
44839;BME280;30576;42.098;24.876;2022-09-12T15:02:25;99201.19;;;25.66;34.91
44839;BME280;30576;42.098;24.876;2022-09-12T15:07:50;99139.78;;;25.26;34.99
44839;BME280;30576;42.098;24.876;2022-09-12T15:10:38;99160.03;;;24.88;35.18
44839;BME280;30576;42.098;24.876;2022-09-12T15:15:43;99191.25;;;25.01;35.82
44839;BME280;30576;42.098;24.876;2022-09-12T15:18:09;99164.22;;;24.80;37.01
44839;BME280;30576;42.098;24.876;2022-09-12T15:20:49;99175.25;;;24.89;37.59
44839;BME280;30576;42.098;24.876;2022-09-12T15:25:49;99194.41;;;24.63;37.91
44839;BME280;30576;42.098;24.876;2022-09-12T15:28:21;99162.91;;;24.29;38.20
44839;BME280;30576;42.098;24.876;2022-09-12T15:31:20;99137.81;;;23.95;38.86
44839;BME280;30576;42.098;24.876;2022-09-12T15:33:50;99144.63;;;23.76;38.65
44839;BME280;30576;42.098;24.876;2022-09-12T15:36:19;99196.59;;;24.01;38.56
44839;BME280;30576;42.098;24.876;2022-09-12T15:38:51;99148.28;;;23.64;38.42
44839;BME280;30576;42.098;24.876;2022-09-12T15:41:28;99158.94;;;23.77;39.34
44839;BME280;30576;42.098;24.876;2022-09-12T15:43:54;99182.81;;;23.70;38.69
44839;BME280;30576;42.098;24.876;2022-09-12T15:46:23;99151.63;;;23.32;39.16
44839;BME280;30576;42.098;24.876;2022-09-12T15:48:49;99229.06;;;23.75;39.10
44839;BME280;30576;42.098;24.876;2022-09-12T15:51:17;99164.47;;;23.29;39.02
44839;BME280;30576;42.098;24.876;2022-09-12T15:53:43;99172.78;;;23.37;39.88
44839;BME280;30576;42.098;24.876;2022-09-12T15:56:09;99211.75;;;23.55;39.62
44839;BME280;30576;42.098;24.876;2022-09-12T15:58:34;99210.31;;;23.63;39.49
44839;BME280;30576;42.098;24.876;2022-09-12T16:01:00;99184.47;;;23.49;39.48
44839;BME280;30576;42.098;24.876;2022-09-12T16:03:27;99166.91;;;23.32;40.15
44839;BME280;30576;42.098;24.876;2022-09-12T16:05:59;99150.75;;;23.20;39.85
44839;BME280;30576;42.098;24.876;2022-09-12T16:08:27;99237.59;;;23.58;39.50